Middletown, DE

11:30 PM EDT on August 27, 2016 (GMT -0400)
RAWS | | Change Station

Elev 69 ft 39.33 °N, 75.73 °W | Updated 1 hour ago

Clear
Clear
71.0 °F
Feels Like 66 °F
N
1.0
Wind Variable Wind from SW
Gusts 4.0 mph

Today
High -- | Low -- °F
--% Chance of Precip.
Yesterday
High -- | Low -- °F
Precip. -- in
Pressure 30.22 in
Visibility 10.0 miles
Clouds Clear
Heat Index 66 °F
Dew Point 69.0 °F
Humidity 95%
Rainfall in
Snow Depth Not available.
6:26 AM 7:40 PM
Waning Crescent, 19% visible
METAR KILG 280251Z 12005KT 10SM CLR 25/18 A3022 RMK AO2 SLP233 T02500178 51019
Pressure 30.22 in
Visibility 10.0 miles
Clouds Clear
Heat Index 66 °F
Dew Point 69.0 °F
Humidity 95%
Rainfall in
Snow Depth Not available.
6:26 AM 7:40 PM
Waning Crescent, 19% visible
METAR KILG 280251Z 12005KT 10SM CLR 25/18 A3022 RMK AO2 SLP233 T02500178 51019

10-Day Weather Forecast

Almanac

Astronomy

Aug. 27, 2016 Rise Set
Actual Time
Civil Twilight
Nautical Twilight
Astronomical Twilight
Moon
Length of Visible Light
Length of Day
Tomorrow will be .
, % of the Moon is Illuminated

Today's Extremes

State Highs State Lows

Community

WunderPhotos

Upload Photos

1,935,514 photos uploaded!

WunderBlog® & News

Nearby

Air Quality

  Air Quality AQ Index Pollutant
Not available.

Snow Depth

Station Depth Elevation

Earthquake Activity

City Distance Mag. Time & Date
Minimum magnitude displayed is 2.5.

Coastal Water Temperatures

Place Temperature

Stations

Nearby Weather Stations

Station Location Temp. Windchill Dew Point Humidity Wind Precip. Elev Updated Type
                   

Watches & Warnings

There are currently no watches in effect.